sensor_id;sensor_type;location;lat;lon;timestamp;pressure;altitude;pressure_sealevel;temperature;humidity
60099;BME280;62818;49.394;8.686;2023-08-20T00:00:51;100626.88;;;24.74;100.00
60099;BME280;62818;49.394;8.686;2023-08-20T00:01:56;100624.03;;;24.54;100.00
60099;BME280;62818;49.394;8.686;2023-08-20T00:03:03;100629.03;;;24.72;100.00
60099;BME280;62818;49.394;8.686;2023-08-20T00:04:09;100623.34;;;24.69;100.00
60099;BME280;62818;49.394;8.686;2023-08-20T00:05:10;100618.63;;;24.49;100.00
60099;BME280;62818;49.394;8.686;2023-08-20T00:06:11;100619.06;;;24.36;100.00
60099;BME280;62818;49.394;8.686;2023-08-20T00:07:12;100615.78;;;24.34;100.00
60099;BME280;62818;49.394;8.686;2023-08-20T00:08:13;100619.56;;;24.33;100.00
60099;BME280;62818;49.394;8.686;2023-08-20T00:09:13;100619.66;;;24.43;100.00
60099;BME280;62818;49.394;8.686;2023-08-20T00:10:14;100618.13;;;24.57;100.00
60099;BME280;62818;49.394;8.686;2023-08-20T00:11:15;100622.53;;;24.68;100.00
60099;BME280;62818;49.394;8.686;2023-08-20T00:12:16;100612.53;;;24.32;100.00
60099;BME280;62818;49.394;8.686;2023-08-20T00:13:16;100613.66;;;24.36;100.00
60099;BME280;62818;49.394;8.686;2023-08-20T00:14:17;100619.78;;;24.63;100.00
60099;BME280;62818;49.394;8.686;2023-08-20T00:15:17;100618.44;;;24.66;100.00
60099;BME280;62818;49.394;8.686;2023-08-20T00:16:20;100617.38;;;24.67;100.00
60099;BME280;62818;49.394;8.686;2023-08-20T00:17:21;100615.81;;;24.39;100.00
60099;BME280;62818;49.394;8.686;2023-08-20T00:18:24;100625.22;;;24.26;100.00
60099;BME280;62818;49.394;8.686;2023-08-20T00:19:25;100619.06;;;24.36;100.00
60099;BME280;62818;49.394;8.686;2023-08-20T00:20:26;100623.09;;;24.34;100.00
60099;BME280;62818;49.394;8.686;2023-08-20T00:21:28;100625.69;;;24.55;100.00
60099;BME280;62818;49.394;8.686;2023-08-20T00:22:29;100631.16;;;24.65;100.00
60099;BME280;62818;49.394;8.686;2023-08-20T00:23:30;100624.31;;;24.53;100.00
60099;BME280;62818;49.394;8.686;2023-08-20T00:24:31;100626.69;;;24.44;100.00
60099;BME280;62818;49.394;8.686;2023-08-20T00:25:32;100621.78;;;24.36;100.00
60099;BME280;62818;49.394;8.686;2023-08-20T00:26:32;100626.66;;;24.39;100.00
60099;BME280;62818;49.394;8.686;2023-08-20T00:27:33;100630.50;;;24.11;100.00
60099;BME280;62818;49.394;8.686;2023-08-20T00:28:34;100626.97;;;23.84;100.00
60099;BME280;62818;49.394;8.686;2023-08-20T00:29:36;100624.94;;;23.70;100.00
60099;BME280;62818;49.394;8.686;2023-08-20T00:30:37;100636.25;;;23.67;100.00
60099;BME280;62818;49.394;8.686;2023-08-20T00:31:37;100631.63;;;23.62;100.00
60099;BME280;62818;49.394;8.686;2023-08-20T00:32:38;100636.44;;;23.55;100.00
60099;BME280;62818;49.394;8.686;2023-08-20T00:33:39;100638.88;;;23.56;100.00
60099;BME280;62818;49.394;8.686;2023-08-20T00:34:39;100629.88;;;23.78;100.00
60099;BME280;62818;49.394;8.686;2023-08-20T00:35:40;100634.03;;;24.12;100.00
60099;BME280;62818;49.394;8.686;2023-08-20T00:36:40;100637.97;;;24.31;100.00
60099;BME280;62818;49.394;8.686;2023-08-20T00:37:41;100634.00;;;24.39;100.00
60099;BME280;62818;49.394;8.686;2023-08-20T00:38:41;100647.16;;;24.30;100.00
60099;BME280;62818;49.394;8.686;2023-08-20T00:39:42;100638.91;;;24.15;100.00
60099;BME280;62818;49.394;8.686;2023-08-20T00:40:42;100632.84;;;24.03;100.00
60099;BME280;62818;49.394;8.686;2023-08-20T00:41:43;100641.47;;;24.00;100.00
60099;BME280;62818;49.394;8.686;2023-08-20T00:42:43;100633.47;;;24.10;100.00
60099;BME280;62818;49.394;8.686;2023-08-20T00:43:44;100644.66;;;24.18;100.00
60099;BME280;62818;49.394;8.686;2023-08-20T00:44:44;100638.91;;;24.15;100.00
60099;BME280;62818;49.394;8.686;2023-08-20T00:45:45;100641.41;;;24.16;100.00
60099;BME280;62818;49.394;8.686;2023-08-20T00:46:46;100644.66;;;24.18;100.00
60099;BME280;62818;49.394;8.686;2023-08-20T00:47:47;100646.59;;;24.23;100.00
60099;BME280;62818;49.394;8.686;2023-08-20T00:48:48;100642.75;;;24.19;100.00
60099;BME280;62818;49.394;8.686;2023-08-20T00:49:49;100642.16;;;24.12;100.00
60099;BME280;62818;49.394;8.686;2023-08-20T00:50:49;100642.59;;;24.04;100.00
60099;BME280;62818;49.394;8.686;2023-08-20T00:51:50;100644.34;;;23.62;100.00
60099;BME280;62818;49.394;8.686;2023-08-20T00:52:51;100645.53;;;23.49;100.00
60099;BME280;62818;49.394;8.686;2023-08-20T00:53:52;100645.94;;;23.36;100.00
60099;BME280;62818;49.394;8.686;2023-08-20T00:54:52;100639.19;;;23.38;100.00
60099;BME280;62818;49.394;8.686;2023-08-20T00:55:53;100646.09;;;23.29;100.00
60099;BME280;62818;49.394;8.686;2023-08-20T00:56:54;100641.44;;;23.46;100.00
60099;BME280;62818;49.394;8.686;2023-08-20T00:57:55;100645.69;;;23.86;100.00
60099;BME280;62818;49.394;8.686;2023-08-20T00:58:56;100642.50;;;23.67;100.00
60099;BME280;62818;49.394;8.686;2023-08-20T00:59:58;100643.78;;;23.38;100.00
60099;BME280;62818;49.394;8.686;2023-08-20T01:00:59;100646.66;;;23.53;100.00
60099;BME280;62818;49.394;8.686;2023-08-20T01:02:00;100643.53;;;23.88;100.00
60099;BME280;62818;49.394;8.686;2023-08-20T01:03:01;100644.09;;;23.90;100.00
60099;BME280;62818;49.394;8.686;2023-08-20T01:04:02;100645.00;;;24.00;100.00
60099;BME280;62818;49.394;8.686;2023-08-20T01:05:03;100648.69;;;23.89;100.00
60099;BME280;62818;49.394;8.686;2023-08-20T01:09:06;100643.00;;;23.37;100.00
60099;BME280;62818;49.394;8.686;2023-08-20T01:11:48;100643.94;;;23.31;100.00
60099;BME280;62818;49.394;8.686;2023-08-20T01:12:55;100650.97;;;23.49;100.00
60099;BME280;62818;49.394;8.686;2023-08-20T01:13:58;100645.47;;;23.66;100.00
60099;BME280;62818;49.394;8.686;2023-08-20T01:14:59;100644.59;;;23.87;100.00
60099;BME280;62818;49.394;8.686;2023-08-20T01:15:59;100640.84;;;23.93;100.00
60099;BME280;62818;49.394;8.686;2023-08-20T01:17:00;100650.25;;;23.58;100.00
60099;BME280;62818;49.394;8.686;2023-08-20T01:18:00;100650.88;;;23.66;100.00
60099;BME280;62818;49.394;8.686;2023-08-20T01:19:01;100646.09;;;23.73;100.00
60099;BME280;62818;49.394;8.686;2023-08-20T01:20:02;100643.06;;;23.96;100.00
60099;BME280;62818;49.394;8.686;2023-08-20T01:21:15;100645.00;;;24.00;100.00
60099;BME280;62818;49.394;8.686;2023-08-20T01:26:04;100637.38;;;23.44;100.00
60099;BME280;62818;49.394;8.686;2023-08-20T01:28:34;100638.44;;;23.21;100.00
60099;BME280;62818;49.394;8.686;2023-08-20T01:29:36;100643.31;;;23.24;100.00
60099;BME280;62818;49.394;8.686;2023-08-20T01:30:39;100645.06;;;23.52;100.00
60099;BME280;62818;49.394;8.686;2023-08-20T01:31:40;100642.38;;;23.84;100.00
60099;BME280;62818;49.394;8.686;2023-08-20T01:32:42;100641.28;;;23.80;100.00
60099;BME280;62818;49.394;8.686;2023-08-20T01:33:43;100638.06;;;23.83;100.00
60099;BME280;62818;49.394;8.686;2023-08-20T01:34:44;100644.34;;;23.62;100.00
60099;BME280;62818;49.394;8.686;2023-08-20T01:35:46;100640.25;;;23.59;100.00
60099;BME280;62818;49.394;8.686;2023-08-20T01:36:46;100643.19;;;23.57;100.00
60099;BME280;62818;49.394;8.686;2023-08-20T01:37:46;100642.59;;;23.77;100.00
60099;BME280;62818;49.394;8.686;2023-08-20T01:38:47;100647.91;;;23.94;100.00
60099;BME280;62818;49.394;8.686;2023-08-20T01:39:47;100639.28;;;23.97;100.00
60099;BME280;62818;49.394;8.686;2023-08-20T01:40:48;100644.72;;;23.97;100.00
60099;BME280;62818;49.394;8.686;2023-08-20T01:41:49;100651.19;;;23.96;100.00
60099;BME280;62818;49.394;8.686;2023-08-20T01:42:49;100652.22;;;23.90;100.00
60099;BME280;62818;49.394;8.686;2023-08-20T01:43:50;100634.88;;;23.91;100.00
60099;BME280;62818;49.394;8.686;2023-08-20T01:44:50;100641.41;;;23.95;100.00
60099;BME280;62818;49.394;8.686;2023-08-20T01:45:51;100646.75;;;23.85;100.00
60099;BME280;62818;49.394;8.686;2023-08-20T01:46:51;100640.97;;;23.76;100.00
60099;BME280;62818;49.394;8.686;2023-08-20T01:47:52;100642.91;;;23.54;100.00
60099;BME280;62818;49.394;8.686;2023-08-20T01:48:52;100635.28;;;23.73;100.00
60099;BME280;62818;49.394;8.686;2023-08-20T01:49:53;100630.00;;;23.88;100.00
60099;BME280;62818;49.394;8.686;2023-08-20T01:50:53;100628.91;;;23.89;100.00
60099;BME280;62818;49.394;8.686;2023-08-20T01:51:54;100628.41;;;23.92;100.00
60099;BME280;62818;49.394;8.686;2023-08-20T01:52:54;100624.03;;;23.86;100.00
60099;BME280;62818;49.394;8.686;2023-08-20T01:53:55;100625.66;;;23.87;100.00
60099;BME280;62818;49.394;8.686;2023-08-20T01:54:55;100625.03;;;23.80;100.00
60099;BME280;62818;49.394;8.686;2023-08-20T01:55:56;100630.84;;;23.67;100.00
60099;BME280;62818;49.394;8.686;2023-08-20T01:56:56;100628.88;;;23.57;100.00
60099;BME280;62818;49.394;8.686;2023-08-20T01:57:57;100626.09;;;23.30;100.00
60099;BME280;62818;49.394;8.686;2023-08-20T01:58:57;100619.75;;;23.20;100.00
60099;BME280;62818;49.394;8.686;2023-08-20T01:59:58;100622.31;;;23.31;100.00
60099;BME280;62818;49.394;8.686;2023-08-20T02:00:58;100619.78;;;23.41;100.00
60099;BME280;62818;49.394;8.686;2023-08-20T02:01:59;100621.84;;;23.34;100.00
60099;BME280;62818;49.394;8.686;2023-08-20T02:02:59;100617.28;;;23.18;100.00
60099;BME280;62818;49.394;8.686;2023-08-20T02:04:00;100621.19;;;23.27;100.00
60099;BME280;62818;49.394;8.686;2023-08-20T02:05:01;100619.41;;;23.59;100.00
60099;BME280;62818;49.394;8.686;2023-08-20T02:06:01;100616.88;;;23.75;100.00
60099;BME280;62818;49.394;8.686;2023-08-20T02:07:02;100615.53;;;23.77;100.00
60099;BME280;62818;49.394;8.686;2023-08-20T02:08:02;100619.03;;;23.51;100.00
60099;BME280;62818;49.394;8.686;2023-08-20T02:09:03;100619.50;;;23.43;100.00
60099;BME280;62818;49.394;8.686;2023-08-20T02:10:04;100610.22;;;23.61;100.00
60099;BME280;62818;49.394;8.686;2023-08-20T02:11:05;100619.38;;;23.54;100.00
60099;BME280;62818;49.394;8.686;2023-08-20T02:12:06;100620.19;;;23.33;100.00
60099;BME280;62818;49.394;8.686;2023-08-20T02:13:07;100619.59;;;23.31;100.00
60099;BME280;62818;49.394;8.686;2023-08-20T02:14:07;100615.63;;;23.61;100.00
60099;BME280;62818;49.394;8.686;2023-08-20T02:15:09;100613.63;;;23.78;100.00
60099;BME280;62818;49.394;8.686;2023-08-20T02:16:11;100617.53;;;23.87;100.00
60099;BME280;62818;49.394;8.686;2023-08-20T02:17:11;100620.66;;;23.74;100.00
60099;BME280;62818;49.394;8.686;2023-08-20T02:18:15;100612.03;;;23.82;100.00
60099;BME280;62818;49.394;8.686;2023-08-20T02:19:17;100620.34;;;23.70;100.00
60099;BME280;62818;49.394;8.686;2023-08-20T02:20:17;100618.34;;;23.61;100.00
60099;BME280;62818;49.394;8.686;2023-08-20T02:21:18;100618.84;;;23.57;100.00
60099;BME280;62818;49.394;8.686;2023-08-20T02:22:18;100620.56;;;23.20;100.00
60099;BME280;62818;49.394;8.686;2023-08-20T02:23:21;100620.94;;;23.07;100.00
60099;BME280;62818;49.394;8.686;2023-08-20T02:24:21;100615.34;;;23.35;100.00
60099;BME280;62818;49.394;8.686;2023-08-20T02:25:23;100625.53;;;23.50;100.00
60099;BME280;62818;49.394;8.686;2023-08-20T02:26:24;100620.25;;;23.17;100.00
60099;BME280;62818;49.394;8.686;2023-08-20T02:27:25;100624.72;;;23.06;100.00
60099;BME280;62818;49.394;8.686;2023-08-20T02:28:26;100627.72;;;23.31;100.00
60099;BME280;62818;49.394;8.686;2023-08-20T02:29:26;100629.31;;;23.49;100.00
60099;BME280;62818;49.394;8.686;2023-08-20T02:30:27;100622.81;;;23.07;100.00
60099;BME280;62818;49.394;8.686;2023-08-20T02:31:27;100629.97;;;22.96;100.00
60099;BME280;62818;49.394;8.686;2023-08-20T02:32:28;100617.47;;;22.90;100.00
60099;BME280;62818;49.394;8.686;2023-08-20T02:33:28;100629.97;;;22.96;100.00
60099;BME280;62818;49.394;8.686;2023-08-20T02:34:29;100629.13;;;23.12;100.00
60099;BME280;62818;49.394;8.686;2023-08-20T02:35:30;100622.59;;;23.08;100.00
60099;BME280;62818;49.394;8.686;2023-08-20T02:36:30;100634.97;;;23.26;100.00
60099;BME280;62818;49.394;8.686;2023-08-20T02:37:32;100631.63;;;23.19;100.00
60099;BME280;62818;49.394;8.686;2023-08-20T02:38:32;100625.13;;;23.36;100.00
60099;BME280;62818;49.394;8.686;2023-08-20T02:39:33;100631.78;;;23.50;100.00
60099;BME280;62818;49.394;8.686;2023-08-20T02:40:39;100623.19;;;23.58;100.00
60099;BME280;62818;49.394;8.686;2023-08-20T02:41:41;100624.81;;;23.59;100.00
60099;BME280;62818;49.394;8.686;2023-08-20T02:42:41;100632.28;;;23.47;100.00
60099;BME280;62818;49.394;8.686;2023-08-20T02:43:42;100633.34;;;23.46;100.00
60099;BME280;62818;49.394;8.686;2023-08-20T02:44:43;100636.56;;;23.43;100.00
60099;BME280;62818;49.394;8.686;2023-08-20T02:45:43;100641.66;;;23.40;100.00
60099;BME280;62818;49.394;8.686;2023-08-20T02:46:43;100646.25;;;23.39;100.00
60099;BME280;62818;49.394;8.686;2023-08-20T02:47:44;100641.34;;;23.36;100.00
60099;BME280;62818;49.394;8.686;2023-08-20T02:48:45;100637.31;;;23.39;100.00
60099;BME280;62818;49.394;8.686;2023-08-20T02:49:45;100643.78;;;23.38;100.00
60099;BME280;62818;49.394;8.686;2023-08-20T02:50:46;100637.06;;;23.40;100.00
60099;BME280;62818;49.394;8.686;2023-08-20T02:51:47;100648.41;;;23.37;100.00
60099;BME280;62818;49.394;8.686;2023-08-20T02:52:47;100647.09;;;23.23;100.00
60099;BME280;62818;49.394;8.686;2023-08-20T02:53:48;100642.38;;;22.92;100.00
60099;BME280;62818;49.394;8.686;2023-08-20T02:54:48;100642.41;;;22.59;100.00
60099;BME280;62818;49.394;8.686;2023-08-20T02:55:49;100641.34;;;22.43;100.00
60099;BME280;62818;49.394;8.686;2023-08-20T02:56:49;100637.34;;;22.46;100.00
60099;BME280;62818;49.394;8.686;2023-08-20T02:57:50;100636.41;;;22.57;100.00
60099;BME280;62818;49.394;8.686;2023-08-20T02:58:50;100639.53;;;22.82;100.00
60099;BME280;62818;49.394;8.686;2023-08-20T02:59:51;100640.94;;;22.68;100.00
60099;BME280;62818;49.394;8.686;2023-08-20T03:00:51;100640.94;;;23.06;100.00
60099;BME280;62818;49.394;8.686;2023-08-20T03:01:53;100643.97;;;23.10;100.00
60099;BME280;62818;49.394;8.686;2023-08-20T03:02:53;100642.06;;;23.10;100.00
60099;BME280;62818;49.394;8.686;2023-08-20T03:03:54;100645.28;;;23.29;100.00
60099;BME280;62818;49.394;8.686;2023-08-20T03:04:55;100640.28;;;23.37;100.00
60099;BME280;62818;49.394;8.686;2023-08-20T03:05:56;100647.88;;;23.40;100.00
60099;BME280;62818;49.394;8.686;2023-08-20T03:06:57;100650.03;;;23.38;100.00
60099;BME280;62818;49.394;8.686;2023-08-20T03:07:57;100637.69;;;23.04;100.00
60099;BME280;62818;49.394;8.686;2023-08-20T03:08:58;100646.06;;;22.86;100.00
60099;BME280;62818;49.394;8.686;2023-08-20T03:09:58;100644.88;;;22.99;100.00
60099;BME280;62818;49.394;8.686;2023-08-20T03:10:59;100648.50;;;23.04;100.00
60099;BME280;62818;49.394;8.686;2023-08-20T03:11:59;100648.31;;;23.11;100.00
60099;BME280;62818;49.394;8.686;2023-08-20T03:13:01;100645.78;;;23.04;100.00
60099;BME280;62818;49.394;8.686;2023-08-20T03:14:02;100646.66;;;22.88;100.00
60099;BME280;62818;49.394;8.686;2023-08-20T03:15:03;100652.50;;;22.80;100.00
60099;BME280;62818;49.394;8.686;2023-08-20T03:16:04;100645.91;;;22.93;100.00
60099;BME280;62818;49.394;8.686;2023-08-20T03:17:04;100649.63;;;23.08;100.00
60099;BME280;62818;49.394;8.686;2023-08-20T03:18:05;100646.56;;;22.83;100.00
60099;BME280;62818;49.394;8.686;2023-08-20T03:19:06;100646.78;;;22.60;100.00
60099;BME280;62818;49.394;8.686;2023-08-20T03:20:07;100645.75;;;22.49;100.00
60099;BME280;62818;49.394;8.686;2023-08-20T03:21:08;100641.13;;;22.45;100.00
60099;BME280;62818;49.394;8.686;2023-08-20T03:22:09;100647.44;;;22.34;100.00
60099;BME280;62818;49.394;8.686;2023-08-20T03:23:09;100637.91;;;22.48;100.00
60099;BME280;62818;49.394;8.686;2023-08-20T03:24:10;100643.47;;;22.58;100.00
60099;BME280;62818;49.394;8.686;2023-08-20T03:25:10;100632.66;;;22.41;100.00
60099;BME280;62818;49.394;8.686;2023-08-20T03:26:11;100642.06;;;22.39;100.00
60099;BME280;62818;49.394;8.686;2023-08-20T03:27:11;100643.56;;;22.46;100.00
60099;BME280;62818;49.394;8.686;2023-08-20T03:28:12;100642.16;;;22.60;100.00
60099;BME280;62818;49.394;8.686;2023-08-20T03:29:12;100648.47;;;22.66;100.00
60099;BME280;62818;49.394;8.686;2023-08-20T03:30:13;100645.09;;;22.59;100.00
60099;BME280;62818;49.394;8.686;2023-08-20T03:31:14;100642.66;;;22.41;100.00
60099;BME280;62818;49.394;8.686;2023-08-20T03:32:15;100644.78;;;22.39;100.00
60099;BME280;62818;49.394;8.686;2023-08-20T03:33:15;100640.50;;;22.43;100.00
60099;BME280;62818;49.394;8.686;2023-08-20T03:34:17;100643.31;;;22.48;100.00
60099;BME280;62818;49.394;8.686;2023-08-20T03:35:17;100637.19;;;22.36;100.00
60099;BME280;62818;49.394;8.686;2023-08-20T03:36:18;100633.31;;;22.32;100.00
60099;BME280;62818;49.394;8.686;2023-08-20T03:37:18;100636.63;;;22.34;100.00
60099;BME280;62818;49.394;8.686;2023-08-20T03:38:19;100636.94;;;22.21;100.00
60099;BME280;62818;49.394;8.686;2023-08-20T03:39:19;100643.16;;;22.21;100.00
60099;BME280;62818;49.394;8.686;2023-08-20T03:40:20;100635.97;;;22.60;100.00
60099;BME280;62818;49.394;8.686;2023-08-20T03:41:20;100649.09;;;22.90;100.00
60099;BME280;62818;49.394;8.686;2023-08-20T03:42:21;100641.44;;;23.03;100.00
60099;BME280;62818;49.394;8.686;2023-08-20T03:43:22;100646.97;;;23.13;100.00
60099;BME280;62818;49.394;8.686;2023-08-20T03:44:22;100649.44;;;23.15;100.00
60099;BME280;62818;49.394;8.686;2023-08-20T03:45:23;100646.41;;;23.11;100.00
60099;BME280;62818;49.394;8.686;2023-08-20T03:46:24;100646.47;;;23.16;100.00
60099;BME280;62818;49.394;8.686;2023-08-20T03:47:24;100654.47;;;23.28;100.00
60099;BME280;62818;49.394;8.686;2023-08-20T03:48:25;100648.13;;;23.17;100.00
60099;BME280;62818;49.394;8.686;2023-08-20T03:49:25;100644.06;;;22.98;100.00
60099;BME280;62818;49.394;8.686;2023-08-20T03:50:25;100650.06;;;22.62;100.00
60099;BME280;62818;49.394;8.686;2023-08-20T03:51:26;100650.06;;;22.62;100.00
60099;BME280;62818;49.394;8.686;2023-08-20T03:52:26;100638.00;;;22.53;100.00
60099;BME280;62818;49.394;8.686;2023-08-20T03:53:27;100638.06;;;22.58;100.00
60099;BME280;62818;49.394;8.686;2023-08-20T03:54:28;100638.06;;;22.41;100.00
60099;BME280;62818;49.394;8.686;2023-08-20T03:55:29;100633.66;;;22.19;100.00
60099;BME280;62818;49.394;8.686;2023-08-20T03:56:30;100641.59;;;22.08;100.00
60099;BME280;62818;49.394;8.686;2023-08-20T03:57:30;100631.25;;;22.05;100.00
60099;BME280;62818;49.394;8.686;2023-08-20T03:58:30;100629.06;;;22.52;100.00
60099;BME280;62818;49.394;8.686;2023-08-20T03:59:31;100633.78;;;22.78;100.00
60099;BME280;62818;49.394;8.686;2023-08-20T04:00:31;100632.66;;;22.74;100.00
60099;BME280;62818;49.394;8.686;2023-08-20T04:01:32;100633.78;;;22.78;100.00
60099;BME280;62818;49.394;8.686;2023-08-20T04:02:34;100631.53;;;22.70;100.00
60099;BME280;62818;49.394;8.686;2023-08-20T04:03:35;100632.91;;;22.73;100.00
60099;BME280;62818;49.394;8.686;2023-08-20T04:04:35;100635.63;;;22.73;100.00
60099;BME280;62818;49.394;8.686;2023-08-20T04:05:37;100641.50;;;22.70;100.00
60099;BME280;62818;49.394;8.686;2023-08-20T04:06:38;100637.72;;;22.54;100.00
60099;BME280;62818;49.394;8.686;2023-08-20T04:07:38;100635.16;;;22.59;100.00
60099;BME280;62818;49.394;8.686;2023-08-20T04:08:39;100644.22;;;22.70;100.00
60099;BME280;62818;49.394;8.686;2023-08-20T04:09:39;100652.00;;;22.66;100.00
60099;BME280;62818;49.394;8.686;2023-08-20T04:10:43;100655.94;;;22.75;100.00
60099;BME280;62818;49.394;8.686;2023-08-20T04:11:45;100646.91;;;22.70;100.00
60099;BME280;62818;49.394;8.686;2023-08-20T04:12:46;100655.59;;;22.72;100.00
60099;BME280;62818;49.394;8.686;2023-08-20T04:13:46;100652.31;;;22.87;100.00
60099;BME280;62818;49.394;8.686;2023-08-20T04:14:47;100654.19;;;22.86;100.00
60099;BME280;62818;49.394;8.686;2023-08-20T04:15:47;100652.31;;;22.70;100.00
60099;BME280;62818;49.394;8.686;2023-08-20T04:16:48;100647.88;;;22.47;100.00
60099;BME280;62818;49.394;8.686;2023-08-20T04:17:48;100648.88;;;22.25;100.00
60099;BME280;62818;49.394;8.686;2023-08-20T04:18:49;100654.03;;;22.43;100.00
60099;BME280;62818;49.394;8.686;2023-08-20T04:19:49;100659.56;;;22.64;100.00
60099;BME280;62818;49.394;8.686;2023-08-20T04:20:51;100664.53;;;22.72;100.00
60099;BME280;62818;49.394;8.686;2023-08-20T04:21:52;100665.00;;;22.69;100.00
60099;BME280;62818;49.394;8.686;2023-08-20T04:22:53;100664.78;;;22.38;100.00
60099;BME280;62818;49.394;8.686;2023-08-20T04:23:53;100662.53;;;22.35;100.00
60099;BME280;62818;49.394;8.686;2023-08-20T04:24:54;100661.31;;;22.26;100.00
60099;BME280;62818;49.394;8.686;2023-08-20T04:25:54;100654.41;;;22.01;100.00
60099;BME280;62818;49.394;8.686;2023-08-20T04:26:54;100656.22;;;22.12;100.00
60099;BME280;62818;49.394;8.686;2023-08-20T04:27:55;100656.56;;;22.33;100.00
60099;BME280;62818;49.394;8.686;2023-08-20T04:28:55;100645.28;;;22.52;100.00
60099;BME280;62818;49.394;8.686;2023-08-20T04:29:56;100649.38;;;22.55;100.00
60099;BME280;62818;49.394;8.686;2023-08-20T04:30:56;100651.66;;;22.63;100.00
60099;BME280;62818;49.394;8.686;2023-08-20T04:31:58;100644.56;;;22.40;100.00
60099;BME280;62818;49.394;8.686;2023-08-20T04:32:58;100653.81;;;22.61;100.00
60099;BME280;62818;49.394;8.686;2023-08-20T04:33:59;100652.50;;;22.80;100.00
60099;BME280;62818;49.394;8.686;2023-08-20T04:34:59;100653.94;;;22.88;100.00
60099;BME280;62818;49.394;8.686;2023-08-20T04:36:00;100655.19;;;22.47;100.00
60099;BME280;62818;49.394;8.686;2023-08-20T04:37:00;100654.03;;;22.76;100.00
60099;BME280;62818;49.394;8.686;2023-08-20T04:38:01;100656.88;;;22.86;100.00
60099;BME280;62818;49.394;8.686;2023-08-20T04:39:02;100653.56;;;23.01;100.00
60099;BME280;62818;49.394;8.686;2023-08-20T04:40:05;100655.25;;;23.07;100.00
60099;BME280;62818;49.394;8.686;2023-08-20T04:41:06;100656.59;;;23.04;100.00
60099;BME280;62818;49.394;8.686;2023-08-20T04:42:06;100650.97;;;22.89;100.00
60099;BME280;62818;49.394;8.686;2023-08-20T04:43:07;100647.88;;;22.47;100.00
60099;BME280;62818;49.394;8.686;2023-08-20T04:44:07;100651.25;;;22.21;100.00
60099;BME280;62818;49.394;8.686;2023-08-20T04:45:08;100645.09;;;22.26;100.00
60099;BME280;62818;49.394;8.686;2023-08-20T04:46:11;100647.09;;;22.13;100.00
60099;BME280;62818;49.394;8.686;2023-08-20T04:47:12;100648.63;;;22.09;100.00
60099;BME280;62818;49.394;8.686;2023-08-20T04:48:15;100654.28;;;22.25;100.00
60099;BME280;62818;49.394;8.686;2023-08-20T04:49:16;100648.06;;;22.41;100.00
60099;BME280;62818;49.394;8.686;2023-08-20T04:50:16;100646.59;;;22.66;100.00
60099;BME280;62818;49.394;8.686;2023-08-20T04:51:17;100649.91;;;22.90;100.00
60099;BME280;62818;49.394;8.686;2023-08-20T04:52:17;100659.03;;;22.84;100.00
60099;BME280;62818;49.394;8.686;2023-08-20T04:53:20;100658.84;;;22.41;100.00
60099;BME280;62818;49.394;8.686;2023-08-20T04:54:20;100655.28;;;22.35;100.00
60099;BME280;62818;49.394;8.686;2023-08-20T04:55:21;100666.50;;;22.60;100.00
60099;BME280;62818;49.394;8.686;2023-08-20T04:56:21;100666.91;;;22.69;100.00
60099;BME280;62818;49.394;8.686;2023-08-20T04:57:22;100669.31;;;22.54;100.00
60099;BME280;62818;49.394;8.686;2023-08-20T04:58:23;100662.28;;;22.36;100.00
60099;BME280;62818;49.394;8.686;2023-08-20T04:59:23;100672.13;;;22.59;100.00
60099;BME280;62818;49.394;8.686;2023-08-20T05:00:24;100675.19;;;22.62;100.00
60099;BME280;62818;49.394;8.686;2023-08-20T05:01:25;100672.97;;;22.59;100.00
60099;BME280;62818;49.394;8.686;2023-08-20T05:02:25;100681.06;;;22.76;100.00
60099;BME280;62818;49.394;8.686;2023-08-20T05:03:26;100687.75;;;22.90;100.00
60099;BME280;62818;49.394;8.686;2023-08-20T05:04:26;100680.47;;;22.74;100.00
60099;BME280;62818;49.394;8.686;2023-08-20T05:05:27;100688.31;;;22.92;100.00
60099;BME280;62818;49.394;8.686;2023-08-20T05:06:27;100688.41;;;22.80;100.00
60099;BME280;62818;49.394;8.686;2023-08-20T05:07:27;100692.28;;;22.68;100.00
60099;BME280;62818;49.394;8.686;2023-08-20T05:08:28;100694.72;;;22.53;100.00
60099;BME280;62818;49.394;8.686;2023-08-20T05:09:29;100696.69;;;22.41;100.00
60099;BME280;62818;49.394;8.686;2023-08-20T05:10:29;100694.88;;;22.46;100.00
60099;BME280;62818;49.394;8.686;2023-08-20T05:11:30;100698.41;;;22.47;100.00
60099;BME280;62818;49.394;8.686;2023-08-20T05:12:33;100690.63;;;22.67;100.00
60099;BME280;62818;49.394;8.686;2023-08-20T05:13:33;100695.03;;;22.90;100.00
60099;BME280;62818;49.394;8.686;2023-08-20T05:14:34;100697.16;;;23.04;100.00
60099;BME280;62818;49.394;8.686;2023-08-20T05:15:34;100698.94;;;23.15;100.00
60099;BME280;62818;49.394;8.686;2023-08-20T05:16:35;100697.97;;;23.05;100.00
60099;BME280;62818;49.394;8.686;2023-08-20T05:17:35;100704.84;;;23.12;100.00
60099;BME280;62818;49.394;8.686;2023-08-20T05:18:36;100696.53;;;22.97;100.00
60099;BME280;62818;49.394;8.686;2023-08-20T05:19:36;100696.53;;;22.80;100.00
60099;BME280;62818;49.394;8.686;2023-08-20T05:20:37;100700.44;;;22.90;100.00
60099;BME280;62818;49.394;8.686;2023-08-20T05:21:37;100696.53;;;22.80;100.00
60099;BME280;62818;49.394;8.686;2023-08-20T05:22:38;100702.94;;;22.91;100.00
60099;BME280;62818;49.394;8.686;2023-08-20T05:23:39;100708.41;;;23.18;100.00
60099;BME280;62818;49.394;8.686;2023-08-20T05:24:40;100705.72;;;23.34;100.00